createdAt,value
2022-12-27T00:02:38.485Z,1.60
2022-12-27T00:06:00.715Z,1.17
2022-12-27T00:09:23.680Z,1.25
2022-12-27T00:12:46.021Z,1.45
2022-12-27T00:16:16.884Z,1.30
2022-12-27T00:19:39.166Z,1.50
2022-12-27T00:23:03.804Z,1.73
2022-12-27T00:26:28.960Z,1.80
2022-12-27T00:33:13.459Z,1.40
2022-12-27T00:36:35.860Z,1.52
2022-12-27T00:39:58.410Z,1.40
2022-12-27T00:43:20.647Z,1.30
2022-12-27T00:46:42.927Z,1.40
2022-12-27T00:50:05.734Z,1.40
2022-12-27T00:53:29.225Z,1.65
2022-12-27T00:56:51.519Z,1.60
2022-12-27T01:00:14.410Z,1.80
2022-12-27T01:03:37.157Z,1.30
2022-12-27T01:06:59.579Z,1.55
2022-12-27T01:10:21.919Z,1.52
2022-12-27T01:13:45.275Z,1.75
2022-12-27T01:17:07.612Z,1.60
2022-12-27T01:20:29.948Z,1.92
2022-12-27T01:23:52.567Z,1.67
2022-12-27T01:27:14.940Z,1.55
2022-12-27T01:30:37.293Z,1.67
2022-12-27T01:34:00.694Z,1.50
2022-12-27T01:37:22.998Z,1.80
2022-12-27T01:40:45.285Z,1.85
2022-12-27T01:44:43.609Z,1.63
2022-12-27T01:48:22.769Z,1.40
2022-12-27T01:51:45.924Z,1.50
2022-12-27T01:55:21.928Z,1.48
2022-12-27T01:58:56.018Z,1.67
2022-12-27T02:02:18.533Z,1.70
2022-12-27T02:05:42.380Z,1.67
2022-12-27T02:09:22.955Z,1.60
2022-12-27T02:12:45.274Z,1.67
2022-12-27T02:16:13.738Z,1.67
2022-12-27T02:19:41.834Z,1.98
2022-12-27T02:23:53.826Z,1.50
2022-12-27T02:27:37.969Z,1.30
2022-12-27T02:31:13.254Z,1.85
2022-12-27T02:34:58.342Z,1.55
2022-12-27T02:38:27.459Z,1.50
2022-12-27T02:42:09.860Z,1.40
2022-12-27T02:45:55.089Z,1.67
2022-12-27T02:49:44.204Z,1.73
2022-12-27T02:53:12.243Z,1.80
2022-12-27T02:56:53.163Z,1.60
2022-12-27T03:00:37.225Z,1.55
2022-12-27T03:04:11.454Z,1.63
2022-12-27T03:08:07.960Z,1.58
2022-12-27T03:12:15.703Z,1.50
2022-12-27T03:15:55.804Z,1.40
2022-12-27T03:19:41.040Z,1.70
2022-12-27T03:23:22.703Z,1.33
2022-12-27T03:26:49.091Z,1.50
2022-12-27T03:30:30.921Z,1.70
2022-12-27T03:34:04.525Z,1.50
2022-12-27T03:37:54.771Z,1.58
2022-12-27T03:41:52.326Z,1.55
2022-12-27T03:45:14.678Z,1.77
2022-12-27T03:48:56.892Z,1.55
2022-12-27T03:52:35.905Z,1.50
2022-12-27T03:55:58.818Z,1.80
2022-12-27T03:59:21.228Z,1.63
2022-12-27T04:02:43.993Z,1.80
2022-12-27T04:06:06.715Z,1.73
2022-12-27T04:09:47.432Z,1.92
2022-12-27T04:13:28.311Z,2.03
2022-12-27T04:17:09.253Z,1.70
2022-12-27T04:20:51.197Z,2.15
2022-12-27T04:24:32.180Z,1.88
2022-12-27T04:28:13.343Z,1.60
2022-12-27T04:31:54.009Z,1.80
2022-12-27T04:35:16.381Z,2.00
2022-12-27T04:38:38.749Z,1.73
2022-12-27T04:42:19.408Z,2.15
2022-12-27T04:46:00.372Z,1.90
2022-12-27T04:49:43.457Z,1.63
2022-12-27T04:53:29.993Z,1.60
2022-12-27T04:56:52.253Z,1.85
2022-12-27T05:00:34.164Z,1.77
2022-12-27T05:03:56.454Z,1.88
2022-12-27T05:07:37.214Z,1.73
2022-12-27T05:11:18.149Z,1.60
2022-12-27T05:14:41.258Z,2.03
2022-12-27T05:18:03.604Z,1.38
2022-12-27T05:21:26.052Z,1.60
2022-12-27T05:25:06.647Z,1.50
2022-12-27T05:28:29.058Z,1.60
2022-12-27T05:31:51.436Z,1.50
2022-12-27T05:35:13.702Z,1.60
2022-12-27T05:38:36.125Z,1.40
2022-12-27T05:41:58.418Z,1.60
2022-12-27T05:45:21.144Z,1.40
2022-12-27T05:48:43.699Z,1.60
2022-12-27T05:52:05.960Z,1.40
2022-12-27T05:55:28.303Z,1.50
2022-12-27T05:58:53.933Z,1.20
2022-12-27T06:02:16.498Z,1.33
2022-12-27T06:05:39.527Z,1.20
2022-12-27T06:09:01.805Z,1.55
2022-12-27T06:12:24.063Z,1.33
2022-12-27T06:15:46.348Z,1.77
2022-12-27T06:19:08.571Z,1.40
2022-12-27T06:22:30.865Z,1.80
2022-12-27T06:25:53.115Z,1.23
2022-12-27T06:29:15.418Z,1.60
2022-12-27T06:32:37.948Z,1.20
2022-12-27T06:36:06.440Z,2.00
2022-12-27T06:39:28.660Z,1.45
2022-12-27T06:42:51.208Z,1.25
2022-12-27T06:46:17.865Z,1.50
2022-12-27T06:49:40.782Z,1.38
2022-12-27T06:53:03.049Z,1.33
2022-12-27T06:56:25.418Z,1.23
2022-12-27T06:59:53.719Z,1.65
2022-12-27T07:03:16.357Z,1.20
2022-12-27T07:06:38.995Z,1.67
2022-12-27T07:10:01.250Z,1.20
2022-12-27T07:13:23.522Z,1.25
2022-12-27T07:16:45.903Z,1.25
2022-12-27T07:20:08.816Z,1.30
2022-12-27T07:23:31.148Z,1.13
2022-12-27T07:26:53.448Z,1.25
2022-12-27T07:30:15.738Z,1.10
2022-12-27T07:33:38.406Z,1.20
2022-12-27T07:37:00.935Z,1.60
2022-12-27T07:40:23.254Z,1.10
2022-12-27T07:43:46.037Z,1.45
2022-12-27T07:47:08.243Z,1.25
2022-12-27T07:50:30.581Z,1.30
2022-12-27T07:53:53.370Z,1.75
2022-12-27T07:57:15.589Z,1.00
2022-12-27T08:00:37.840Z,1.30
2022-12-27T08:04:00.130Z,1.42
2022-12-27T08:07:22.434Z,1.58
2022-12-27T08:10:45.088Z,1.13
2022-12-27T08:14:07.454Z,1.33
2022-12-27T08:17:30.050Z,1.30
2022-12-27T08:20:52.798Z,1.17
2022-12-27T08:24:15.056Z,1.80
2022-12-27T08:27:37.308Z,1.25
2022-12-27T08:31:00.327Z,1.10
2022-12-27T08:34:22.707Z,1.20
2022-12-27T08:37:44.947Z,1.55
2022-12-27T08:41:07.185Z,1.40
2022-12-27T08:44:29.496Z,1.20
2022-12-27T08:47:52.037Z,1.23
2022-12-27T08:51:18.556Z,1.63
2022-12-27T08:54:49.077Z,1.20
2022-12-27T08:58:15.956Z,1.15
2022-12-27T09:01:39.080Z,1.33
2022-12-27T09:05:01.479Z,1.10
2022-12-27T09:08:23.763Z,1.40
2022-12-27T09:11:46.758Z,1.10
2022-12-27T09:15:09.549Z,1.10
2022-12-27T09:18:31.841Z,1.20
2022-12-27T09:21:54.159Z,1.00
2022-12-27T09:25:16.541Z,1.80
2022-12-27T09:28:40.087Z,1.52
2022-12-27T09:32:02.310Z,1.58
2022-12-27T09:35:24.585Z,1.50
2022-12-27T09:38:48.211Z,1.77
2022-12-27T09:42:50.757Z,1.30
2022-12-27T09:46:20.846Z,1.40
2022-12-27T09:49:50.905Z,1.42
2022-12-27T09:53:21.787Z,1.63
2022-12-27T10:00:30.152Z,1.20
2022-12-27T10:03:57.963Z,1.50
2022-12-27T10:07:45.306Z,1.30
2022-12-27T10:11:37.358Z,1.63
2022-12-27T10:15:05.816Z,1.30
2022-12-27T10:18:43.053Z,1.45
2022-12-27T10:22:38.722Z,1.63
2022-12-27T10:26:06.875Z,1.40
2022-12-27T10:29:29.706Z,1.40
2022-12-27T10:32:53.659Z,1.42
2022-12-27T10:36:22.817Z,1.50
2022-12-27T10:39:45.901Z,1.63
2022-12-27T10:43:21.587Z,1.60
2022-12-27T10:46:51.761Z,1.95
2022-12-27T10:50:15.350Z,1.70
2022-12-27T10:53:47.216Z,1.83
2022-12-27T10:57:26.870Z,1.33
2022-12-27T11:00:56.938Z,1.60
2022-12-27T11:04:21.835Z,1.30
2022-12-27T11:07:44.348Z,1.63
2022-12-27T11:11:13.754Z,1.63
2022-12-27T11:14:37.400Z,1.75
2022-12-27T11:18:04.789Z,1.65
2022-12-27T11:21:29.226Z,1.25
2022-12-27T11:24:54.382Z,1.20
2022-12-27T11:28:36.871Z,1.40
2022-12-27T11:32:07.307Z,1.50
2022-12-27T11:35:29.806Z,1.17
2022-12-27T11:38:52.470Z,1.30
2022-12-27T11:42:17.482Z,1.50
2022-12-27T11:45:49.319Z,1.30
2022-12-27T11:49:40.298Z,1.27
2022-12-27T11:53:09.356Z,1.60
2022-12-27T11:56:35.464Z,1.50
2022-12-27T12:00:17.950Z,1.35
2022-12-27T12:04:11.940Z,1.48
2022-12-27T12:07:47.147Z,2.77
2022-12-27T12:11:25.081Z,6.90
2022-12-27T12:15:11.605Z,3.75
2022-12-27T12:18:52.304Z,6.50
2022-12-27T12:22:14.515Z,5.28
2022-12-27T12:26:12.189Z,3.13
2022-12-27T12:29:53.211Z,3.60
2022-12-27T12:33:39.563Z,3.67
2022-12-27T12:37:20.433Z,3.05
2022-12-27T12:41:10.079Z,2.58
2022-12-27T12:45:04.940Z,2.75
2022-12-27T12:48:54.927Z,2.40
2022-12-27T12:52:44.282Z,2.08
2022-12-27T12:56:26.817Z,2.10
2022-12-27T13:00:15.298Z,2.40
2022-12-27T13:04:01.379Z,39.10
2022-12-27T13:07:42.270Z,14.70
2022-12-27T13:11:25.931Z,15.30
2022-12-27T13:15:15.043Z,15.73
2022-12-27T13:18:51.725Z,12.30
2022-12-27T13:22:51.544Z,10.40
2022-12-27T13:26:40.533Z,10.85
2022-12-27T13:30:24.592Z,10.30
2022-12-27T13:34:32.227Z,9.27
2022-12-27T13:38:18.099Z,9.50
2022-12-27T13:41:45.920Z,8.10
2022-12-27T13:45:46.360Z,8.15
2022-12-27T13:49:45.399Z,7.50
2022-12-27T13:53:21.885Z,7.53
2022-12-27T13:57:05.512Z,7.15
2022-12-27T14:00:53.755Z,7.05
2022-12-27T14:04:42.157Z,5.30
2022-12-27T14:08:18.078Z,5.07
2022-12-27T14:12:02.204Z,5.57
2022-12-27T14:15:42.775Z,5.45
2022-12-27T14:19:23.279Z,5.95
2022-12-27T14:23:03.436Z,4.40
2022-12-27T14:26:46.006Z,4.53
2022-12-27T14:30:46.905Z,4.45
2022-12-27T14:34:26.663Z,4.60
2022-12-27T14:42:39.535Z,3.65
2022-12-27T14:46:04.812Z,3.40
2022-12-27T14:53:00.642Z,3.25
2022-12-27T14:57:07.473Z,3.45
2022-12-27T15:00:52.141Z,2.60
2022-12-27T15:04:32.825Z,3.42
2022-12-27T15:08:19.639Z,3.15
2022-12-27T15:11:47.539Z,2.95
2022-12-27T15:15:49.207Z,2.83
2022-12-27T15:19:34.229Z,2.85
2022-12-27T15:23:18.326Z,3.10
2022-12-27T15:26:57.243Z,2.67
2022-12-27T15:30:22.930Z,2.40
2022-12-27T15:33:58.900Z,2.60
2022-12-27T15:37:01.111Z,2.58
2022-12-27T15:40:29.219Z,2.47
2022-12-27T15:43:46.253Z,2.15
2022-12-27T15:47:07.314Z,2.05
2022-12-27T15:50:21.445Z,2.00
2022-12-27T15:53:29.269Z,1.83
2022-12-27T15:57:06.852Z,1.80
2022-12-27T16:00:33.857Z,1.83
2022-12-27T16:03:39.226Z,2.20
2022-12-27T16:07:04.133Z,1.48
2022-12-27T16:10:32.420Z,1.98
2022-12-27T16:14:26.765Z,1.80
2022-12-27T16:17:55.217Z,1.45
2022-12-27T16:21:23.770Z,1.63
2022-12-27T16:24:46.121Z,1.92
2022-12-27T16:28:27.756Z,1.73
2022-12-27T16:31:50.988Z,1.30
2022-12-27T16:35:15.849Z,1.33
2022-12-27T16:38:58.374Z,1.40
2022-12-27T16:42:28.626Z,1.50
2022-12-27T16:45:59.510Z,1.30
2022-12-27T16:49:40.348Z,1.45
2022-12-27T16:53:25.592Z,1.20
2022-12-27T16:56:48.353Z,1.65
2022-12-27T17:00:11.085Z,1.85
2022-12-27T17:03:36.461Z,1.45
2022-12-27T17:06:58.750Z,1.30
2022-12-27T17:10:32.963Z,1.40
2022-12-27T17:14:09.343Z,1.27
2022-12-27T17:17:32.247Z,1.15
2022-12-27T17:21:07.996Z,1.30
2022-12-27T17:24:30.576Z,1.30
2022-12-27T17:28:18.006Z,1.15
2022-12-27T17:32:09.453Z,1.10
2022-12-27T17:36:10.709Z,1.17
2022-12-27T17:40:05.989Z,1.10
2022-12-27T17:44:17.401Z,1.30
2022-12-27T17:47:58.215Z,1.20
2022-12-27T17:51:32.352Z,1.83
2022-12-27T17:55:31.791Z,1.23
2022-12-27T17:59:02.535Z,1.23
2022-12-27T18:02:32.723Z,1.20
2022-12-27T18:05:55.194Z,1.30
2022-12-27T18:09:36.591Z,1.92
2022-12-27T18:13:04.829Z,1.75
2022-12-27T18:16:37.345Z,2.10
2022-12-27T18:19:59.677Z,2.35
2022-12-27T18:23:22.060Z,2.75
2022-12-27T18:26:44.347Z,3.30
2022-12-27T18:30:10.904Z,3.30
2022-12-27T18:33:46.492Z,3.22
2022-12-27T18:40:35.906Z,3.03
2022-12-27T18:44:02.343Z,2.90
2022-12-27T18:47:29.478Z,2.35
2022-12-27T18:50:53.763Z,2.70
2022-12-27T18:54:28.178Z,2.37
2022-12-27T18:58:05.743Z,2.45
2022-12-27T19:01:39.516Z,2.38
2022-12-27T19:05:29.315Z,2.08
2022-12-27T19:08:53.105Z,1.95
2022-12-27T19:12:39.302Z,1.95
2022-12-27T19:16:02.118Z,1.73
2022-12-27T19:19:30.116Z,1.58
2022-12-27T19:22:56.819Z,1.63
2022-12-27T19:26:39.366Z,1.65
2022-12-27T19:30:01.680Z,1.50
2022-12-27T19:33:26.403Z,1.58
2022-12-27T19:36:49.462Z,1.70
2022-12-27T19:40:15.032Z,1.33
2022-12-27T19:43:41.783Z,1.50
2022-12-27T19:47:04.148Z,1.42
2022-12-27T19:50:26.407Z,1.20
2022-12-27T19:53:57.664Z,1.10
2022-12-27T19:57:22.183Z,1.38
2022-12-27T20:00:44.652Z,1.30
2022-12-27T20:04:06.985Z,1.17
2022-12-27T20:07:29.281Z,1.10
2022-12-27T20:10:52.974Z,1.33
2022-12-27T20:14:17.445Z,1.15
2022-12-27T20:17:44.818Z,1.02
2022-12-27T20:21:11.737Z,1.08
2022-12-27T20:24:35.100Z,1.33
2022-12-27T20:27:57.609Z,1.15
2022-12-27T20:31:23.172Z,1.10
2022-12-27T20:34:45.661Z,1.15
2022-12-27T20:38:09.548Z,1.17
2022-12-27T20:41:31.846Z,1.30
2022-12-27T20:44:54.110Z,1.50
2022-12-27T20:48:16.561Z,1.15
2022-12-27T20:51:38.885Z,1.05
2022-12-27T20:55:01.124Z,1.40
2022-12-27T20:58:23.554Z,1.20
2022-12-27T21:01:46.008Z,1.33
2022-12-27T21:05:08.619Z,1.15
2022-12-27T21:08:36.079Z,1.20
2022-12-27T21:12:01.113Z,1.48
2022-12-27T21:15:24.477Z,1.02
2022-12-27T21:18:48.027Z,0.90
2022-12-27T21:22:10.287Z,0.90
2022-12-27T21:25:32.927Z,1.52
2022-12-27T21:28:55.507Z,1.55
2022-12-27T21:32:18.063Z,1.27
2022-12-27T21:35:40.324Z,0.90
2022-12-27T21:39:03.938Z,0.90
2022-12-27T21:42:26.227Z,0.90
2022-12-27T21:45:48.629Z,1.10
2022-12-27T21:49:13.137Z,1.10
2022-12-27T21:52:35.398Z,1.05
2022-12-27T21:55:58.597Z,0.75
2022-12-27T21:59:20.892Z,1.15
2022-12-27T22:02:43.401Z,1.00
2022-12-27T22:06:27.938Z,1.20
2022-12-27T22:09:50.270Z,0.80
2022-12-27T22:13:12.601Z,1.15
2022-12-27T22:16:37.693Z,0.77
2022-12-27T22:20:00.239Z,1.70
2022-12-27T22:23:22.587Z,0.98
2022-12-27T22:26:45.268Z,0.93
2022-12-27T22:30:08.175Z,1.10
2022-12-27T22:33:30.560Z,0.98
2022-12-27T22:36:53.203Z,0.90
2022-12-27T22:40:30.520Z,0.90
2022-12-27T22:44:05.893Z,1.00
2022-12-27T22:47:28.569Z,0.90
2022-12-27T22:50:51.064Z,0.90
2022-12-27T22:54:13.311Z,0.95
2022-12-27T22:57:35.665Z,0.98
2022-12-27T23:01:00.259Z,0.80
2022-12-27T23:04:26.980Z,0.68
2022-12-27T23:08:04.754Z,0.88
2022-12-27T23:11:35.581Z,0.80
2022-12-27T23:14:57.887Z,0.85
2022-12-27T23:18:20.104Z,0.88
2022-12-27T23:21:42.745Z,0.85
2022-12-27T23:25:05.435Z,1.00
2022-12-27T23:28:27.739Z,0.90
2022-12-27T23:31:54.752Z,0.90
2022-12-27T23:35:18.110Z,1.00
2022-12-27T23:38:42.065Z,0.75
2022-12-27T23:42:04.470Z,0.80
2022-12-27T23:45:26.761Z,0.90
2022-12-27T23:48:49.631Z,0.60
2022-12-27T23:52:11.965Z,0.77
2022-12-27T23:55:34.311Z,0.60
2022-12-27T23:58:58.640Z,0.82
